Abakan Airport
UNAA : now visible

Airfield :











YOU CAN JOIN US ON...

 
LOGIN :

Register | Disclaimer

   EN    FR    IT 

 









Legend :    VFR   Marginal VFR   IFR   Intensive IFR   Very Intensive IFR
Visi :
Ceiling :
>= 8 km
>= 3000ft
5 to 8 km
1000 to 3000 ft
1500m to 5 km
500 to 1000 ft
800 to 1500m
200 to 500 ft
< 800m
< 200 ft
Symbols :   Thunderstorms  Fog  Heavy snow  Heavy precipitations  Wind > 20 kt






- Airport Elevation : 831 ft
- IATA code : ABA


UNAA - Abakan

CURRENT METAR :
  • 131730Z 35004MPS 9999 SCT032CB M09/M14 Q1022 R02/420255 NOSIG RMK QFE744

EXPIRED METARs :
  • 131700Z 34004MPS 9999 -SHSN SCT036CB M09/M13 Q1022 R02/420255 NOSIG RMK QFE744
  • 131630Z 35004MPS 9999 SCT041CB M09/M13 Q1022 R02/420255 NOSIG RMK QFE743
  • 131600Z 35004MPS 9999 -SHSN SCT039CB M09/M13 Q1021 R02/420255 NOSIG RMK QFE743
  • 131530Z 35004MPS 9999 SCT040CB M08/M12 Q1021 R02/491037 NOSIG RMK QFE743
  • 131500Z 35004MPS 9999 SCT058CB M08/M13 Q1021 R02/491037 NOSIG RMK QFE743

TAF TAF UNAA
Valid from the 13 at 18:00 until the 14 at 18:00 UTC


131656Z 1318/1418 35003G10MPS 9999 SCT020CB
TEMPO 1318/1406 3200 -SHSN



MET'MAP, your aeronautical weather chart ! - Copyright ORBIFLY December 2007 - Disclaimer

ORBIFLY MET'MAP TEAM :

Programming & Development : Alexandra Zaïnal
Concept & Development : Baudouin d'Aumeries
Co-Development & Prog : Marc-Olivier Méhu
Technical & hardware support : Manuel Goepfert

Contact : metmap@orbifly.com




SOURCES & CREDITS :

   NOAA       Earth
Advisory